Rosslare, Ireland

11:54 AM IST on July 23, 2014 (GMT +0100)
Carne (IWEXFORD2) Elev 3 ft | 52.20 °N, 6.35 °W | Change Station

Current weather conditions updated 1 minute ago

Partly Cloudy
Partly Cloudy
68.7 °F
Feels Like 68.7 °F
N
7.3
Wind Variable Wind from ENE
Gusts 13.0 mph

Today is forecast to be Much Cooler than yesterday.

Today
High -- | Low -- °F
--% Chance of Precip.
Yesterday
High -- | Low -- °F
Precip. -- in
5:32 AM 9:30 PM
Waning Crescent, 11% visible
Pressure 30.15 in
Visibility 6.2 miles
Clouds Few 1800 ft
Dew Point 60 °F
Humidity 75%
Rainfall 0.00 in
Snow Depth Not available.
UV 6 out of 12
Pollen Not available.
Air Quality Not available.
Flu Activity Not available.
METAR EIWF 231030Z 13006KT 100V170 9999 FEW018 21/16 Q1021

More Conditions Fewer Conditions

Pressure 30.15 in
Visibility 6.2 miles
Clouds Few 1800 ft
Dew Point 60 °F
Humidity 75%
Rainfall 0.00 in
Snow Depth Not available.
UV 6 out of 12
Pollen Not available.
Air Quality Not available.
Flu Activity Not available.
METAR EIWF 231030Z 13006KT 100V170 9999 FEW018 21/16 Q1021

More Conditions Fewer Conditions

10-Day Weather Forecast

Almanac

Astronomy

Jul. 23, 2014 Rise Set
Actual Time 5:32 AM IST 9:30 PM IST
Civil Twilight 4:48 AM IST 10:14 PM IST
Nautical Twilight 3:45 AM IST 11:16 PM IST
Astronomical Twilight 2:04 AM IST 12:59 AM IST
Moon 2:44 AM IST 6:44 PM IST
Length of Visible Light 17h 25m
Length of Day
15h 57m
Tomorrow will be 2m 49s shorter.
Waning Crescent, 11% of the Moon is Illuminated
Today
Waning Crescent
Jul 26
New
Aug 3
First Quarter
Aug 10
Full
Aug 17
Last Quarter

Yesterday's Extremes

Country Highs Country Lows

Community

WunderPhotos

Upload Photos

1,736,557 photos uploaded!

Nearby

Snow Depth

Not available.

Earthquake Activity

City Distance Mag. Time & Date
No recent earthquake activity has been reported nearby.
Minimum magnitude displayed is 2.5.

Coastal Water Temperatures

Place Temperature
No Stations Reporting

Nearby Weather Stations

Station Location Temp. Dew Point Humidity Wind Precip. Elev Updated Type
Carne, Wexford 68.7 °F 60 °F 75% ENE  at  7.3 mph 0.00 in / hr 3 ft 11:52 AM IST Normal
Wexford, Wexford 66.4 °F 62 °F 86% East  at  10.0 mph 0.00 in / hr 3 ft 11:54 AM IST Rapid Fire

Show More Stations Show Fewer Stations